Time;durP1;ratioP1;P1;durP2;ratioP2;P2;SDS_P1;SDS_P2;PMS_P1;PMS_P2;Temp;Humidity;BMP_temperature;BMP_pressure;BME280_temperature;BME280_humidity;BME280_pressure;Samples;Min_cycle;Max_cycle;Signal;HPM_P1;HPM_P2
2024/01/06 00:00:54;;;;;;;28.73;19.57;;;2.20;99.90;;;;;;5109449;28;20203;-74
2024/01/06 00:03:21;;;;;;;28.37;19.07;;;2.10;99.90;;;;;;5109696;28;20211;-74
2024/01/06 00:05:47;;;;;;;31.50;20.70;;;2.20;99.90;;;;;;5113179;28;20200;-74
2024/01/06 00:08:14;;;;;;;35.63;21.63;;;2.20;99.90;;;;;;5112647;28;20228;-74
2024/01/06 00:10:41;;;;;;;36.33;23.23;;;2.10;99.90;;;;;;5112866;28;20668;-74
2024/01/06 00:13:07;;;;;;;32.60;21.43;;;2.20;99.90;;;;;;5112807;28;20722;-74
2024/01/06 00:15:35;;;;;;;36.10;22.13;;;2.20;99.90;;;;;;5113222;28;20261;-74
2024/01/06 00:18:02;;;;;;;32.50;21.83;;;2.20;99.90;;;;;;5113285;28;20245;-74
2024/01/06 00:20:28;;;;;;;26.77;18.60;;;2.20;99.90;;;;;;5112755;28;20196;-74
2024/01/06 00:22:56;;;;;;;25.93;18.80;;;2.30;99.90;;;;;;5112860;28;20205;-74
2024/01/06 00:25:23;;;;;;;30.77;19.43;;;2.30;99.90;;;;;;5113057;28;20556;-73
2024/01/06 00:27:49;;;;;;;29.97;19.30;;;2.20;99.90;;;;;;5112874;28;20228;-74
2024/01/06 00:30:16;;;;;;;29.27;17.93;;;2.20;99.90;;;;;;5113039;28;20273;-73
2024/01/06 00:32:44;;;;;;;29.67;20.13;;;2.20;99.90;;;;;;5115290;28;20191;-73
2024/01/06 00:35:11;;;;;;;30.70;19.70;;;2.20;99.90;;;;;;5115754;27;20250;-73
2024/01/06 00:37:38;;;;;;;32.60;20.77;;;2.20;99.90;;;;;;5115316;28;20206;-73
2024/01/06 00:40:05;;;;;;;30.07;19.80;;;2.20;99.90;;;;;;5115869;28;20192;-73
2024/01/06 00:42:32;;;;;;;27.87;19.67;;;2.20;99.90;;;;;;5114611;28;20228;-73
2024/01/06 00:44:59;;;;;;;31.13;20.03;;;2.20;99.90;;;;;;5115804;28;20192;-73
2024/01/06 00:47:25;;;;;;;32.17;20.23;;;2.20;99.90;;;;;;5115648;28;20219;-73
2024/01/06 00:49:53;;;;;;;33.20;21.53;;;2.20;99.90;;;;;;5115419;27;20199;-73
2024/01/06 00:52:20;;;;;;;34.73;21.17;;;2.20;99.90;;;;;;5115467;28;20200;-73
2024/01/06 00:54:46;;;;;;;34.20;20.87;;;2.20;99.90;;;;;;5115692;28;20596;-73
2024/01/06 00:57:13;;;;;;;30.20;20.10;;;2.20;99.90;;;;;;5115524;28;20624;-74
2024/01/06 00:59:40;;;;;;;31.53;21.07;;;2.20;99.90;;;;;;5115453;28;20536;-73
2024/01/06 01:02:07;;;;;;;33.10;21.87;;;2.10;99.90;;;;;;5115234;27;20655;-74
2024/01/06 01:04:33;;;;;;;32.07;22.70;;;2.10;99.90;;;;;;5115270;27;20203;-74
2024/01/06 01:07:01;;;;;;;30.77;21.50;;;2.10;99.90;;;;;;5115410;28;20197;-74
2024/01/06 01:09:29;;;;;;;33.67;21.77;;;2.20;99.90;;;;;;5115263;28;20256;-75
2024/01/06 01:11:56;;;;;;;30.30;20.53;;;2.10;99.90;;;;;;5115346;28;20202;-73
2024/01/06 01:14:23;;;;;;;30.90;21.10;;;2.20;99.90;;;;;;5114524;28;20249;-73
2024/01/06 01:16:49;;;;;;;33.67;20.47;;;2.10;99.90;;;;;;5115156;28;20197;-74
2024/01/06 01:19:16;;;;;;;25.87;17.93;;;2.10;99.90;;;;;;5114854;28;20713;-74
2024/01/06 01:21:43;;;;;;;27.33;19.27;;;2.20;99.90;;;;;;5115018;28;20200;-74
2024/01/06 01:24:11;;;;;;;25.03;17.93;;;2.20;99.90;;;;;;5114888;28;20257;-73
2024/01/06 01:26:37;;;;;;;27.00;17.37;;;2.20;99.90;;;;;;5114885;27;20196;-73
2024/01/06 01:29:04;;;;;;;29.20;17.50;;;2.20;99.90;;;;;;5114639;28;20695;-74
2024/01/06 01:31:31;;;;;;;27.53;17.07;;;2.20;99.90;;;;;;5114335;28;20669;-74
2024/01/06 01:33:57;;;;;;;26.43;17.23;;;2.20;99.90;;;;;;5114585;28;20222;-73
2024/01/06 01:36:25;;;;;;;26.47;18.37;;;2.20;99.90;;;;;;5114552;28;20205;-74
2024/01/06 01:38:52;;;;;;;25.07;17.70;;;2.20;99.90;;;;;;5114732;28;20277;-74
2024/01/06 01:41:19;;;;;;;33.57;19.23;;;2.20;99.90;;;;;;5114655;28;20199;-74
2024/01/06 01:43:46;;;;;;;25.43;19.43;;;2.30;99.90;;;;;;5114234;28;20564;-74
2024/01/06 01:46:13;;;;;;;27.33;18.07;;;2.30;99.90;;;;;;5114372;28;20204;-74
2024/01/06 01:48:41;;;;;;;27.83;18.37;;;2.30;99.90;;;;;;5114199;28;20230;-74
2024/01/06 01:51:10;;;;;;;31.40;19.33;;;2.20;99.90;;;;;;5114133;28;20675;-73
2024/01/06 01:53:37;;;;;;;27.77;18.37;;;2.20;99.90;;;;;;5114456;28;20207;-73
2024/01/06 01:56:04;;;;;;;26.80;18.10;;;2.30;99.90;;;;;;5114392;28;20192;-73
2024/01/06 01:58:32;;;;;;;27.60;19.17;;;2.30;99.90;;;;;;5114223;28;20291;-73
2024/01/06 02:00:59;;;;;;;30.57;17.87;;;2.30;99.90;;;;;;5113972;28;20214;-73
2024/01/06 02:03:26;;;;;;;27.37;18.60;;;2.30;99.90;;;;;;5114397;28;20215;-74
2024/01/06 02:05:53;;;;;;;25.60;18.33;;;2.30;99.90;;;;;;5114081;27;20245;-73
2024/01/06 02:08:20;;;;;;;24.07;17.90;;;2.30;99.90;;;;;;5114040;28;20224;-73
2024/01/06 02:10:47;;;;;;;27.70;18.87;;;2.30;99.90;;;;;;5113758;28;20197;-73
2024/01/06 02:13:13;;;;;;;24.67;17.73;;;2.30;99.90;;;;;;5114124;27;20585;-73
2024/01/06 02:15:41;;;;;;;22.00;17.33;;;2.30;99.90;;;;;;5113894;28;20198;-73
2024/01/06 02:18:08;;;;;;;23.17;17.50;;;2.30;99.90;;;;;;5114035;28;20202;-73
2024/01/06 02:20:35;;;;;;;23.53;17.00;;;2.30;99.90;;;;;;5113770;28;20196;-73
2024/01/06 02:23:03;;;;;;;23.17;17.73;;;2.30;99.90;;;;;;5120450;28;20224;-74
2024/01/06 02:25:30;;;;;;;25.67;17.20;;;2.30;99.90;;;;;;5113583;28;20247;-73
2024/01/06 02:27:57;;;;;;;24.30;17.60;;;2.20;99.90;;;;;;5113019;28;20216;-73
2024/01/06 02:30:24;;;;;;;22.30;15.93;;;2.30;99.90;;;;;;5113871;28;20193;-73
2024/01/06 02:32:50;;;;;;;23.83;16.63;;;2.40;99.90;;;;;;5113779;28;20200;-73
2024/01/06 02:35:17;;;;;;;21.70;15.37;;;2.40;99.90;;;;;;5113772;28;20198;-73
2024/01/06 02:37:44;;;;;;;22.20;15.63;;;2.30;99.90;;;;;;5113562;28;20571;-74
2024/01/06 02:40:13;;;;;;;25.53;16.43;;;2.30;99.90;;;;;;5113137;28;20651;-73
2024/01/06 02:42:40;;;;;;;21.87;15.93;;;2.30;99.90;;;;;;5113234;28;20285;-73
2024/01/06 02:45:08;;;;;;;23.17;16.53;;;2.30;99.90;;;;;;5113625;28;20281;-72
2024/01/06 02:47:36;;;;;;;27.10;17.03;;;2.30;99.90;;;;;;5113433;28;20206;-72
2024/01/06 02:50:02;;;;;;;24.47;16.37;;;2.30;99.90;;;;;;5113484;28;20200;-73
2024/01/06 02:52:29;;;;;;;23.47;16.43;;;2.30;99.90;;;;;;5113429;28;20260;-73
2024/01/06 02:54:55;;;;;;;22.73;16.80;;;2.30;99.90;;;;;;5113317;28;20205;-73
2024/01/06 02:57:23;;;;;;;24.40;16.20;;;2.30;99.90;;;;;;5113157;28;20199;-73
2024/01/06 02:59:50;;;;;;;21.07;16.57;;;2.30;99.90;;;;;;5113214;28;20198;-73
2024/01/06 03:02:17;;;;;;;25.37;17.07;;;2.30;99.90;;;;;;5113452;28;20213;-73
2024/01/06 03:04:44;;;;;;;26.07;16.53;;;2.30;99.90;;;;;;5113382;28;20253;-73
2024/01/06 03:07:11;;;;;;;26.73;18.20;;;2.30;99.90;;;;;;5112913;28;20552;-73
2024/01/06 03:09:38;;;;;;;30.30;18.80;;;2.30;99.90;;;;;;5113090;28;20284;-73
2024/01/06 03:12:07;;;;;;;31.70;18.17;;;2.30;99.90;;;;;;5112754;28;20200;-73
2024/01/06 03:14:35;;;;;;;23.43;17.53;;;2.30;99.90;;;;;;5113298;28;20191;-73
2024/01/06 03:17:02;;;;;;;25.27;17.07;;;2.30;99.90;;;;;;5113226;28;20242;-73
2024/01/06 03:19:29;;;;;;;25.27;16.30;;;2.30;99.90;;;;;;5113181;28;20207;-73
2024/01/06 03:21:56;;;;;;;31.23;18.30;;;2.20;99.90;;;;;;5113020;28;20197;-72
2024/01/06 03:24:25;;;;;;;22.40;16.57;;;2.20;99.90;;;;;;5113016;28;20252;-73
2024/01/06 03:26:51;;;;;;;28.93;16.50;;;2.20;99.90;;;;;;5113141;28;20218;-73
2024/01/06 03:29:18;;;;;;;29.00;17.93;;;2.20;99.90;;;;;;5112998;28;20268;-73
2024/01/06 03:31:46;;;;;;;21.43;16.00;;;2.20;99.90;;;;;;5112876;28;20710;-73
2024/01/06 03:34:13;;;;;;;23.90;15.90;;;2.20;99.90;;;;;;5112883;28;20589;-73
2024/01/06 03:36:40;;;;;;;21.07;15.20;;;2.20;99.90;;;;;;5112570;28;20671;-73
2024/01/06 03:39:07;;;;;;;23.17;15.83;;;2.20;99.90;;;;;;5116518;28;20205;-73
2024/01/06 03:41:34;;;;;;;22.80;16.00;;;2.20;99.90;;;;;;5116785;28;20585;-74
2024/01/06 03:44:01;;;;;;;24.07;17.20;;;2.20;99.90;;;;;;5116759;27;20232;-74
2024/01/06 03:46:28;;;;;;;20.83;16.00;;;2.30;99.90;;;;;;5116983;28;20596;-73
2024/01/06 03:48:56;;;;;;;24.27;16.03;;;2.30;99.90;;;;;;5116613;28;20222;-74
2024/01/06 03:51:23;;;;;;;22.70;13.60;;;2.30;99.90;;;;;;5116685;28;20197;-74
2024/01/06 03:53:49;;;;;;;19.27;13.63;;;2.30;99.90;;;;;;5116931;28;20204;-74
2024/01/06 03:56:16;;;;;;;24.70;14.60;;;2.30;99.90;;;;;;5116620;27;20841;-74
2024/01/06 03:58:43;;;;;;;24.37;14.60;;;2.30;99.90;;;;;;5116532;28;20195;-74
2024/01/06 04:01:10;;;;;;;18.47;13.67;;;2.30;99.90;;;;;;5116572;28;20656;-74
2024/01/06 04:03:37;;;;;;;22.33;13.80;;;2.30;99.90;;;;;;5116417;28;20277;-74
2024/01/06 04:06:05;;;;;;;17.73;12.70;;;2.20;99.90;;;;;;5116423;28;20249;-74
2024/01/06 04:08:31;;;;;;;19.27;12.77;;;2.30;99.90;;;;;;5116245;28;20916;-75
2024/01/06 04:10:58;;;;;;;19.37;12.30;;;2.30;99.90;;;;;;5116306;28;20245;-74
2024/01/06 04:13:25;;;;;;;18.00;12.23;;;2.30;99.90;;;;;;5116270;28;20196;-74
2024/01/06 04:15:52;;;;;;;17.30;12.13;;;2.40;99.90;;;;;;5116278;28;20238;-74
2024/01/06 04:18:19;;;;;;;21.50;12.80;;;2.40;99.90;;;;;;5116060;27;20199;-74
2024/01/06 04:20:45;;;;;;;15.73;12.97;;;2.30;99.90;;;;;;5116380;27;20230;-74
2024/01/06 04:23:13;;;;;;;19.67;12.40;;;2.30;99.90;;;;;;5116311;28;20196;-74
2024/01/06 04:25:40;;;;;;;19.77;13.20;;;2.30;99.90;;;;;;5116300;27;20253;-74
2024/01/06 04:28:06;;;;;;;19.90;13.60;;;2.20;99.90;;;;;;5115640;28;20217;-74
2024/01/06 04:30:33;;;;;;;19.83;13.13;;;2.20;99.90;;;;;;5115996;27;20200;-74
2024/01/06 04:33:00;;;;;;;19.33;12.70;;;2.20;99.90;;;;;;5115895;28;20249;-74
2024/01/06 04:35:26;;;;;;;20.33;12.97;;;2.20;99.90;;;;;;5116049;28;20203;-74
2024/01/06 04:37:53;;;;;;;14.63;11.80;;;2.20;99.90;;;;;;5115773;28;20201;-74
2024/01/06 04:40:21;;;;;;;16.93;12.00;;;2.10;99.90;;;;;;5115930;28;20200;-74
2024/01/06 04:42:48;;;;;;;18.17;12.93;;;2.10;99.90;;;;;;5115549;28;20344;-74
2024/01/06 04:45:14;;;;;;;22.03;13.27;;;2.10;99.90;;;;;;5115672;28;20201;-74
2024/01/06 04:47:41;;;;;;;18.63;13.23;;;2.10;99.90;;;;;;5115446;28;20662;-74
2024/01/06 04:50:08;;;;;;;18.97;13.50;;;2.10;99.90;;;;;;5114943;28;20231;-74
2024/01/06 04:52:35;;;;;;;18.13;13.33;;;2.10;99.90;;;;;;5115685;27;20200;-74
2024/01/06 04:55:02;;;;;;;18.30;12.83;;;2.10;99.90;;;;;;5115597;28;20192;-74
2024/01/06 04:57:30;;;;;;;17.90;12.47;;;2.10;99.90;;;;;;5115664;28;20540;-74
2024/01/06 04:59:57;;;;;;;20.23;14.03;;;2.10;99.90;;;;;;5115371;28;20200;-74
2024/01/06 05:02:24;;;;;;;20.20;14.17;;;2.10;99.90;;;;;;5115347;28;20245;-73
2024/01/06 05:04:50;;;;;;;19.53;14.80;;;2.10;99.90;;;;;;5115442;28;20200;-72
2024/01/06 05:07:17;;;;;;;21.10;14.90;;;2.10;99.90;;;;;;5115395;28;20200;-72
2024/01/06 05:09:44;;;;;;;19.73;14.30;;;2.10;99.90;;;;;;5115155;28;20263;-73
2024/01/06 05:12:10;;;;;;;20.93;14.33;;;2.10;99.90;;;;;;5115140;28;20678;-73
2024/01/06 05:14:38;;;;;;;20.23;13.77;;;2.00;99.90;;;;;;5114964;28;20233;-73
2024/01/06 05:17:05;;;;;;;19.43;12.87;;;2.00;99.90;;;;;;5115024;27;20196;-73
2024/01/06 05:19:32;;;;;;;20.57;13.67;;;2.00;99.90;;;;;;5115181;28;20199;-73
2024/01/06 05:21:59;;;;;;;22.03;14.80;;;1.90;99.90;;;;;;5115115;28;20253;-73
2024/01/06 05:24:25;;;;;;;19.47;14.27;;;1.90;99.90;;;;;;5115072;28;20256;-73
2024/01/06 05:26:52;;;;;;;23.63;14.40;;;2.00;99.90;;;;;;5114956;28;20249;-73
2024/01/06 05:29:18;;;;;;;18.37;13.77;;;2.10;99.90;;;;;;5114657;27;20249;-73
2024/01/06 05:31:48;;;;;;;20.30;14.30;;;2.00;99.90;;;;;;5114967;28;20597;-73
2024/01/06 05:34:15;;;;;;;29.33;15.30;;;2.00;99.90;;;;;;5114901;28;20204;-73
2024/01/06 05:36:42;;;;;;;21.87;14.23;;;2.00;99.90;;;;;;5114662;28;20216;-74
2024/01/06 05:39:09;;;;;;;22.23;14.83;;;2.00;99.90;;;;;;5114682;28;20204;-73
2024/01/06 05:41:38;;;;;;;19.03;13.63;;;2.00;99.90;;;;;;5114485;28;20195;-73
2024/01/06 05:44:05;;;;;;;21.73;13.53;;;2.00;99.90;;;;;;5114122;28;20298;-74
2024/01/06 05:46:32;;;;;;;21.37;13.43;;;2.00;99.90;;;;;;5114456;27;20654;-73
2024/01/06 05:49:00;;;;;;;19.53;13.60;;;2.00;99.90;;;;;;5114562;28;20700;-73
2024/01/06 05:51:27;;;;;;;20.87;14.37;;;2.00;99.90;;;;;;5114464;28;20257;-73
2024/01/06 05:53:54;;;;;;;27.63;14.83;;;2.10;99.90;;;;;;5114349;28;20238;-73
2024/01/06 05:56:25;;;;;;;20.57;14.60;;;2.10;99.90;;;;;;5114262;27;20286;-73
2024/01/06 05:58:52;;;;;;;20.03;13.93;;;2.10;99.90;;;;;;5114331;28;20291;-73
2024/01/06 06:01:18;;;;;;;22.33;14.87;;;2.10;99.90;;;;;;5113420;28;20203;-73
2024/01/06 06:03:45;;;;;;;23.97;14.33;;;2.20;99.90;;;;;;5114110;28;20712;-73
2024/01/06 06:06:13;;;;;;;18.37;13.80;;;2.10;99.90;;;;;;5114264;28;20196;-74
2024/01/06 06:08:41;;;;;;;23.27;14.30;;;2.10;99.90;;;;;;5114048;28;20195;-73
2024/01/06 06:11:10;;;;;;;18.47;14.00;;;2.10;99.90;;;;;;5113800;28;20278;-73
2024/01/06 06:13:37;;;;;;;20.53;14.10;;;2.10;99.90;;;;;;5113778;28;20659;-74
2024/01/06 06:16:05;;;;;;;20.90;15.80;;;2.00;99.90;;;;;;5114014;28;20196;-73
2024/01/06 06:18:32;;;;;;;19.60;14.60;;;2.00;99.90;;;;;;5113867;28;20628;-73
2024/01/06 06:20:59;;;;;;;23.27;15.80;;;2.10;99.90;;;;;;5113972;28;20223;-73
2024/01/06 06:23:27;;;;;;;28.77;15.63;;;2.10;99.90;;;;;;5113469;28;20192;-74
2024/01/06 06:25:54;;;;;;;20.57;15.30;;;2.20;99.90;;;;;;5113766;28;20805;-74
2024/01/06 06:28:20;;;;;;;27.77;14.87;;;2.10;99.90;;;;;;5113928;28;20254;-74
2024/01/06 06:30:47;;;;;;;23.50;15.97;;;2.20;99.90;;;;;;5113523;28;20718;-74
2024/01/06 06:33:13;;;;;;;31.60;15.47;;;2.30;99.90;;;;;;5113605;28;20204;-74
2024/01/06 06:35:40;;;;;;;22.93;14.90;;;2.30;99.90;;;;;;5113642;28;20257;-74
2024/01/06 06:38:07;;;;;;;25.50;17.27;;;2.30;99.90;;;;;;5113493;28;20191;-74
2024/01/06 06:40:35;;;;;;;22.67;17.03;;;2.30;99.90;;;;;;5113643;28;20200;-74
2024/01/06 06:43:01;;;;;;;25.03;18.53;;;2.20;99.90;;;;;;5113532;28;20270;-74
2024/01/06 06:45:28;;;;;;;24.17;15.97;;;2.30;99.90;;;;;;5113425;28;20256;-74
2024/01/06 06:47:55;;;;;;;26.00;13.80;;;2.40;99.90;;;;;;5113518;28;20251;-74
2024/01/06 06:50:21;;;;;;;22.67;15.27;;;2.50;99.90;;;;;;5113342;28;20232;-74
2024/01/06 06:52:48;;;;;;;25.53;15.03;;;2.50;99.90;;;;;;5113329;28;20655;-74
2024/01/06 06:55:15;;;;;;;21.77;15.37;;;2.50;99.90;;;;;;5113408;28;20253;-74
2024/01/06 06:57:42;;;;;;;18.97;14.47;;;2.50;99.90;;;;;;5113481;28;20197;-74
2024/01/06 07:00:10;;;;;;;21.30;13.80;;;2.50;99.90;;;;;;5113343;28;20221;-74
2024/01/06 07:02:37;;;;;;;22.83;15.50;;;2.50;99.90;;;;;;5113298;28;20286;-74
2024/01/06 07:05:06;;;;;;;24.07;14.93;;;2.50;99.90;;;;;;5113178;28;20196;-74
2024/01/06 07:07:33;;;;;;;20.80;15.03;;;2.50;99.90;;;;;;5113419;28;20192;-74
2024/01/06 07:10:01;;;;;;;21.20;14.57;;;2.50;99.90;;;;;;5113053;28;20274;-74
2024/01/06 07:12:27;;;;;;;20.50;14.87;;;2.50;99.90;;;;;;5114077;28;20260;-74
2024/01/06 07:14:55;;;;;;;22.27;15.23;;;2.50;99.90;;;;;;5117483;28;20221;-74
2024/01/06 07:17:22;;;;;;;19.03;14.17;;;2.50;99.90;;;;;;5117210;28;20188;-74
2024/01/06 07:19:49;;;;;;;20.83;14.40;;;2.50;99.90;;;;;;5117052;28;20536;-74
2024/01/06 07:22:16;;;;;;;21.97;15.00;;;2.50;99.90;;;;;;5117381;28;20201;-74
2024/01/06 07:24:43;;;;;;;22.33;14.57;;;2.50;99.90;;;;;;5117328;28;20226;-74
2024/01/06 07:27:09;;;;;;;23.67;15.23;;;2.50;99.90;;;;;;5117081;28;20194;-74
2024/01/06 07:29:36;;;;;;;29.27;16.17;;;2.50;99.90;;;;;;5117055;28;20219;-74
2024/01/06 07:32:06;;;;;;;27.53;14.87;;;2.50;99.90;;;;;;5116806;28;20684;-74
2024/01/06 07:34:33;;;;;;;25.57;15.87;;;2.50;99.90;;;;;;5117212;28;20201;-74
2024/01/06 07:37:01;;;;;;;25.53;14.67;;;2.60;99.90;;;;;;5117237;28;20204;-74
2024/01/06 07:39:27;;;;;;;21.87;14.63;;;2.60;99.90;;;;;;5116958;27;20258;-74
2024/01/06 07:41:54;;;;;;;22.60;14.07;;;2.60;99.90;;;;;;5117039;28;20272;-74
2024/01/06 07:44:24;;;;;;;22.97;13.43;;;2.60;99.90;;;;;;5116557;28;20242;-74
2024/01/06 07:46:51;;;;;;;19.87;13.73;;;2.60;99.90;;;;;;5116639;28;20655;-74
2024/01/06 07:49:19;;;;;;;22.20;14.27;;;2.60;99.90;;;;;;5116938;28;20302;-73
2024/01/06 07:51:45;;;;;;;21.93;13.97;;;2.60;99.90;;;;;;5116919;28;20223;-73
2024/01/06 07:54:12;;;;;;;25.87;14.97;;;2.60;99.90;;;;;;5116597;28;20208;-73
2024/01/06 07:56:39;;;;;;;22.60;14.37;;;2.70;99.90;;;;;;5116438;28;20211;-73
2024/01/06 07:59:06;;;;;;;21.43;14.27;;;2.70;99.90;;;;;;5116642;28;20201;-73
2024/01/06 08:01:33;;;;;;;23.07;14.17;;;2.70;99.90;;;;;;5116451;28;20285;-73
2024/01/06 08:03:59;;;;;;;20.73;13.77;;;2.80;99.90;;;;;;5116664;28;20200;-73
2024/01/06 08:06:27;;;;;;;21.23;12.50;;;2.80;99.90;;;;;;5116614;28;20235;-74
2024/01/06 08:08:54;;;;;;;19.80;13.77;;;2.90;99.90;;;;;;5116391;27;20223;-74
2024/01/06 08:11:21;;;;;;;23.03;14.00;;;2.90;99.90;;;;;;5116165;28;20237;-73
2024/01/06 08:13:48;;;;;;;23.90;15.40;;;2.90;99.90;;;;;;5116357;28;20204;-73
2024/01/06 08:16:14;;;;;;;22.80;15.57;;;2.90;99.90;;;;;;5116312;28;20692;-73
2024/01/06 08:18:41;;;;;;;20.10;14.13;;;2.90;99.90;;;;;;5116643;28;20193;-73
2024/01/06 08:21:07;;;;;;;25.93;14.57;;;2.90;99.90;;;;;;5116284;27;20620;-73
2024/01/06 08:23:36;;;;;;;18.83;13.10;;;2.90;99.90;;;;;;5115839;28;20200;-73
2024/01/06 08:26:03;;;;;;;21.40;13.80;;;3.00;99.90;;;;;;5117238;28;20192;-73
2024/01/06 08:28:30;;;;;;;20.67;12.80;;;3.00;99.90;;;;;;5120077;28;20208;-74
2024/01/06 08:30:57;;;;;;;21.23;15.13;;;3.00;99.90;;;;;;5116359;28;20225;-74
2024/01/06 08:33:23;;;;;;;22.60;15.03;;;3.10;99.90;;;;;;5116165;28;20199;-75
2024/01/06 08:35:50;;;;;;;24.40;15.40;;;3.20;99.90;;;;;;5116400;28;20657;-74
2024/01/06 08:38:16;;;;;;;24.80;16.13;;;3.30;99.90;;;;;;5126104;28;20230;-74
2024/01/06 08:40:47;;;;;;;26.57;17.77;;;3.40;99.90;;;;;;5117129;28;20776;-74
2024/01/06 08:43:14;;;;;;;20.63;15.33;;;3.50;99.90;;;;;;5115595;28;20226;-74
2024/01/06 08:45:41;;;;;;;18.00;13.83;;;3.60;99.90;;;;;;5115528;28;20202;-74
2024/01/06 08:48:08;;;;;;;19.00;13.57;;;3.70;99.90;;;;;;5115673;28;20195;-74
2024/01/06 08:50:34;;;;;;;20.07;12.60;;;3.80;99.90;;;;;;5115465;28;20226;-74
2024/01/06 08:53:01;;;;;;;17.90;12.77;;;3.80;99.90;;;;;;5115693;28;20203;-75
2024/01/06 08:55:28;;;;;;;18.77;12.60;;;3.90;99.90;;;;;;5115228;28;20204;-75
2024/01/06 08:57:55;;;;;;;24.50;13.83;;;4.00;99.90;;;;;;5136129;27;20186;-75
2024/01/06 09:00:22;;;;;;;24.30;17.10;;;4.10;99.90;;;;;;5136048;27;20203;-74
2024/01/06 09:02:49;;;;;;;17.00;13.07;;;4.20;99.90;;;;;;5136136;27;20203;-75
2024/01/06 09:05:15;;;;;;;41.93;25.37;;;4.20;99.90;;;;;;5135940;27;20198;-76
2024/01/06 09:07:42;;;;;;;13.57;10.70;;;4.20;99.90;;;;;;5135805;27;20195;-75
2024/01/06 09:10:10;;;;;;;17.73;12.90;;;4.10;99.90;;;;;;5135625;27;20250;-73
2024/01/06 09:12:36;;;;;;;16.17;11.47;;;4.10;99.90;;;;;;5135824;27;20198;-73
2024/01/06 09:15:05;;;;;;;12.10;9.53;;;4.00;99.90;;;;;;5135808;27;20206;-74
2024/01/06 09:17:32;;;;;;;14.70;10.57;;;4.00;99.90;;;;;;5135549;27;20198;-74
2024/01/06 09:19:58;;;;;;;12.87;9.87;;;3.90;99.90;;;;;;5135585;27;20233;-76
2024/01/06 09:22:25;;;;;;;18.73;10.33;;;3.90;99.90;;;;;;5135517;27;20711;-77
2024/01/06 09:24:52;;;;;;;12.37;8.87;;;3.90;99.90;;;;;;5135506;27;20270;-74
2024/01/06 09:27:19;;;;;;;13.80;9.33;;;3.90;99.90;;;;;;5135541;27;20203;-74
2024/01/06 09:29:45;;;;;;;13.33;9.50;;;3.90;99.90;;;;;;5135324;27;20565;-75
2024/01/06 09:32:14;;;;;;;12.73;9.27;;;3.90;99.90;;;;;;5135296;27;20193;-75
2024/01/06 09:34:40;;;;;;;14.27;9.07;;;3.80;99.90;;;;;;5135280;27;20202;-74
2024/01/06 09:37:07;;;;;;;14.37;10.23;;;3.90;99.90;;;;;;5134643;27;20226;-75
2024/01/06 09:39:34;;;;;;;12.20;9.60;;;3.90;99.90;;;;;;5135422;27;20251;-75
2024/01/06 09:42:01;;;;;;;12.33;10.13;;;4.00;99.90;;;;;;5135046;27;20285;-76
2024/01/06 09:44:27;;;;;;;11.23;9.60;;;4.10;99.90;;;;;;5135015;27;20257;-73
2024/01/06 09:46:59;;;;;;;11.57;9.53;;;4.10;99.90;;;;;;5135048;27;20630;-76
2024/01/06 09:49:31;;;;;;;13.97;11.23;;;4.20;99.90;;;;;;5135113;27;20195;-75
2024/01/06 09:52:00;;;;;;;14.57;10.33;;;4.20;99.90;;;;;;5135148;27;20227;-74
2024/01/06 09:54:33;;;;;;;13.43;9.87;;;4.30;99.90;;;;;;5135139;27;20194;-74
2024/01/06 09:57:00;;;;;;;11.43;8.43;;;4.30;99.90;;;;;;5134968;27;20228;-75
2024/01/06 09:59:27;;;;;;;12.27;10.70;;;4.40;99.90;;;;;;5134907;27;20322;-74
2024/01/06 10:01:54;;;;;;;11.43;8.47;;;4.50;99.90;;;;;;5134737;27;20209;-73
2024/01/06 10:04:20;;;;;;;17.03;11.30;;;4.70;99.90;;;;;;5134520;27;20199;-74
2024/01/06 10:06:49;;;;;;;14.10;8.50;;;4.90;99.90;;;;;;5134766;27;20203;-75
2024/01/06 10:09:16;;;;;;;26.37;17.03;;;5.00;99.90;;;;;;5134757;27;20199;-77
2024/01/06 10:11:43;;;;;;;9.83;7.07;;;5.00;99.90;;;;;;5134443;27;20749;-76
2024/01/06 10:14:09;;;;;;;9.90;7.37;;;5.00;99.90;;;;;;5134513;27;20626;-77
2024/01/06 10:16:37;;;;;;;12.00;8.40;;;5.00;99.90;;;;;;5134490;27;20195;-77
2024/01/06 10:19:04;;;;;;;9.93;7.07;;;5.00;99.90;;;;;;5134755;27;20251;-77
2024/01/06 10:21:33;;;;;;;8.23;6.40;;;4.90;99.90;;;;;;5134609;27;20232;-76
2024/01/06 10:24:01;;;;;;;9.03;6.53;;;4.80;99.90;;;;;;5134261;27;20650;-75
2024/01/06 10:26:27;;;;;;;8.70;6.73;;;4.90;99.90;;;;;;5134392;27;20198;-76
2024/01/06 10:28:54;;;;;;;13.20;8.93;;;4.80;99.90;;;;;;5134228;27;20199;-76
2024/01/06 10:31:21;;;;;;;17.67;12.03;;;4.80;99.90;;;;;;5134021;27;20686;-75
2024/01/06 10:33:48;;;;;;;14.33;10.07;;;4.80;99.90;;;;;;5134494;27;20195;-76
2024/01/06 10:36:15;;;;;;;24.33;15.03;;;4.60;99.90;;;;;;5134297;27;20194;-75
2024/01/06 10:38:42;;;;;;;10.23;8.10;;;4.60;99.90;;;;;;5134372;27;20554;-75
2024/01/06 10:41:12;;;;;;;11.20;7.57;;;4.60;99.90;;;;;;5133944;27;20197;-73
2024/01/06 10:43:41;;;;;;;12.47;9.00;;;4.50;99.90;;;;;;5124936;27;20235;-76
2024/01/06 10:46:10;;;;;;;15.50;9.70;;;4.50;99.90;;;;;;5118010;27;20555;-76
2024/01/06 10:48:42;;;;;;;11.43;8.73;;;4.50;99.90;;;;;;5121447;27;20191;-77
2024/01/06 10:51:09;;;;;;;13.90;9.63;;;4.40;99.90;;;;;;5133894;27;20244;-76
2024/01/06 10:53:37;;;;;;;11.57;8.10;;;4.40;99.90;;;;;;5133460;27;20201;-76
2024/01/06 10:56:04;;;;;;;8.93;7.90;;;4.30;99.90;;;;;;5133718;27;20229;-76
2024/01/06 10:58:36;;;;;;;9.20;8.20;;;4.40;99.90;;;;;;5133233;27;20657;-76
2024/01/06 11:01:03;;;;;;;15.63;9.40;;;4.50;99.90;;;;;;5133915;27;20194;-76
2024/01/06 11:03:30;;;;;;;9.20;8.03;;;4.60;99.90;;;;;;5133379;28;20198;-75
2024/01/06 11:05:58;;;;;;;10.80;8.17;;;4.40;99.90;;;;;;5133500;28;20255;-76
2024/01/06 11:08:26;;;;;;;11.50;8.57;;;4.40;99.90;;;;;;5133045;27;20195;-75
2024/01/06 11:10:53;;;;;;;12.30;7.57;;;4.30;99.90;;;;;;5132615;27;20681;-76
2024/01/06 11:13:23;;;;;;;9.80;8.67;;;4.50;99.90;;;;;;5133618;27;20246;-76
2024/01/06 11:15:53;;;;;;;11.23;8.07;;;4.60;99.90;;;;;;5134003;27;20207;-75
2024/01/06 11:18:34;;;;;;;9.93;7.37;;;4.60;99.90;;;;;;5133746;27;20228;-76
2024/01/06 11:21:25;;;;;;;14.20;8.10;;;4.60;99.90;;;;;;5133729;27;20316;-75
2024/01/06 11:24:11;;;;;;;9.20;6.60;;;4.70;99.90;;;;;;5134057;27;20261;-75
2024/01/06 11:26:40;;;;;;;10.40;7.40;;;4.70;99.90;;;;;;5134054;27;20247;-77
2024/01/06 11:29:09;;;;;;;10.43;7.33;;;4.70;99.90;;;;;;5133663;27;20195;-74
2024/01/06 11:31:37;;;;;;;9.03;7.23;;;4.80;99.90;;;;;;5133265;27;20708;-74
2024/01/06 11:34:15;;;;;;;9.30;7.43;;;4.80;99.90;;;;;;5133558;27;20197;-76
2024/01/06 11:36:44;;;;;;;11.50;7.13;;;4.70;99.90;;;;;;5133500;27;20671;-76
2024/01/06 11:39:35;;;;;;;7.73;6.80;;;4.70;99.90;;;;;;5134400;27;20290;-77
2024/01/06 11:42:03;;;;;;;11.50;6.90;;;4.60;99.90;;;;;;5113211;28;20191;-77
2024/01/06 11:44:29;;;;;;;9.17;7.00;;;4.70;99.90;;;;;;5112760;28;20231;-76
2024/01/06 11:46:59;;;;;;;9.33;6.80;;;4.70;99.90;;;;;;5113299;28;20204;-76
2024/01/06 11:49:27;;;;;;;10.10;6.97;;;4.80;99.90;;;;;;5114006;28;20264;-76
2024/01/06 11:51:54;;;;;;;8.47;7.37;;;4.90;99.90;;;;;;5113227;28;20219;-76
2024/01/06 11:54:22;;;;;;;8.90;6.23;;;5.00;99.90;;;;;;5112908;28;20203;-75
2024/01/06 11:56:48;;;;;;;9.10;7.60;;;5.00;99.90;;;;;;5112824;28;20196;-77
2024/01/06 11:59:15;;;;;;;8.67;6.87;;;5.10;99.90;;;;;;5114953;28;20204;-75
2024/01/06 12:01:42;;;;;;;9.20;7.23;;;5.00;99.90;;;;;;5116752;28;20196;-76
2024/01/06 12:04:15;;;;;;;11.50;6.93;;;5.00;99.90;;;;;;5116413;28;20191;-75
2024/01/06 12:06:41;;;;;;;9.17;6.47;;;4.90;99.90;;;;;;5116768;28;20204;-75
2024/01/06 12:09:09;;;;;;;15.33;7.13;;;4.90;99.90;;;;;;5116661;28;20200;-75
2024/01/06 12:11:36;;;;;;;8.13;6.10;;;4.70;99.90;;;;;;5116351;28;20252;-75
2024/01/06 12:14:03;;;;;;;9.33;6.97;;;4.70;99.90;;;;;;5116580;28;20612;-75
2024/01/06 12:16:32;;;;;;;8.67;6.97;;;4.70;99.90;;;;;;5116339;28;20647;-75
2024/01/06 12:19:00;;;;;;;7.80;6.37;;;4.70;99.90;;;;;;5119438;28;20195;-75
2024/01/06 12:21:29;;;;;;;11.50;7.47;;;4.70;99.90;;;;;;5117760;28;20225;-77
2024/01/06 12:24:12;;;;;;;8.00;6.63;;;4.70;99.90;;;;;;5116528;28;20231;-76
2024/01/06 12:26:38;;;;;;;9.80;7.20;;;4.80;99.90;;;;;;5117703;28;20201;-76
2024/01/06 12:29:05;;;;;;;9.17;6.97;;;4.80;99.90;;;;;;5126252;28;20199;-76
2024/01/06 12:31:33;;;;;;;10.60;7.00;;;4.70;99.90;;;;;;5130382;28;20283;-76
2024/01/06 12:34:00;;;;;;;10.17;7.70;;;4.70;99.90;;;;;;5129472;28;20195;-76
2024/01/06 12:36:28;;;;;;;9.23;7.00;;;4.70;99.90;;;;;;5116156;28;20206;-76
2024/01/06 12:38:56;;;;;;;9.97;7.90;;;4.70;99.90;;;;;;5117741;28;20202;-77
2024/01/06 12:41:22;;;;;;;8.37;7.47;;;4.60;99.90;;;;;;5116403;28;20264;-76